sensor_id;sensor_type;location;lat;lon;timestamp;P1;durP1;ratioP1;P2;durP2;ratioP2
37973;SDS011;23796;51.458;7.000;2023-06-19T00:00:19;5.18;;;3.00;;
37973;SDS011;23796;51.458;7.000;2023-06-19T00:02:45;5.15;;;2.67;;
37973;SDS011;23796;51.458;7.000;2023-06-19T00:05:11;4.60;;;3.30;;
37973;SDS011;23796;51.458;7.000;2023-06-19T00:07:38;4.80;;;2.80;;
37973;SDS011;23796;51.458;7.000;2023-06-19T00:10:06;5.55;;;3.30;;
37973;SDS011;23796;51.458;7.000;2023-06-19T00:12:36;3.55;;;2.63;;
37973;SDS011;23796;51.458;7.000;2023-06-19T00:15:02;4.00;;;2.92;;
37973;SDS011;23796;51.458;7.000;2023-06-19T00:17:28;5.35;;;3.03;;
37973;SDS011;23796;51.458;7.000;2023-06-19T00:19:53;4.13;;;2.80;;
37973;SDS011;23796;51.458;7.000;2023-06-19T00:22:19;4.90;;;3.33;;
37973;SDS011;23796;51.458;7.000;2023-06-19T00:24:45;5.10;;;3.15;;
37973;SDS011;23796;51.458;7.000;2023-06-19T00:27:11;4.57;;;3.13;;
37973;SDS011;23796;51.458;7.000;2023-06-19T00:29:36;4.15;;;2.85;;
37973;SDS011;23796;51.458;7.000;2023-06-19T00:32:02;6.05;;;3.08;;
37973;SDS011;23796;51.458;7.000;2023-06-19T00:34:28;4.82;;;3.25;;
37973;SDS011;23796;51.458;7.000;2023-06-19T00:36:57;4.10;;;3.33;;
37973;SDS011;23796;51.458;7.000;2023-06-19T00:39:28;3.72;;;2.75;;
37973;SDS011;23796;51.458;7.000;2023-06-19T00:41:56;5.35;;;3.00;;
37973;SDS011;23796;51.458;7.000;2023-06-19T00:44:22;5.90;;;3.03;;
37973;SDS011;23796;51.458;7.000;2023-06-19T00:47:00;4.63;;;3.05;;
37973;SDS011;23796;51.458;7.000;2023-06-19T00:49:27;4.88;;;3.28;;
37973;SDS011;23796;51.458;7.000;2023-06-19T00:51:56;5.88;;;2.72;;
37973;SDS011;23796;51.458;7.000;2023-06-19T00:54:22;3.65;;;2.63;;
37973;SDS011;23796;51.458;7.000;2023-06-19T00:56:50;5.63;;;3.38;;
37973;SDS011;23796;51.458;7.000;2023-06-19T00:59:18;5.10;;;3.03;;
37973;SDS011;23796;51.458;7.000;2023-06-19T01:01:45;4.75;;;3.08;;
37973;SDS011;23796;51.458;7.000;2023-06-19T01:04:11;4.43;;;2.88;;
37973;SDS011;23796;51.458;7.000;2023-06-19T01:06:50;4.15;;;2.95;;
37973;SDS011;23796;51.458;7.000;2023-06-19T01:09:22;4.50;;;3.33;;
37973;SDS011;23796;51.458;7.000;2023-06-19T01:11:54;3.92;;;3.10;;
37973;SDS011;23796;51.458;7.000;2023-06-19T01:17:14;4.30;;;3.20;;
37973;SDS011;23796;51.458;7.000;2023-06-19T01:19:41;4.57;;;3.03;;
37973;SDS011;23796;51.458;7.000;2023-06-19T01:22:07;3.92;;;3.20;;
37973;SDS011;23796;51.458;7.000;2023-06-19T01:24:33;4.00;;;3.00;;
37973;SDS011;23796;51.458;7.000;2023-06-19T01:26:58;4.68;;;3.08;;
37973;SDS011;23796;51.458;7.000;2023-06-19T01:29:24;4.05;;;2.80;;
37973;SDS011;23796;51.458;7.000;2023-06-19T01:32:12;4.07;;;2.88;;
37973;SDS011;23796;51.458;7.000;2023-06-19T01:34:45;4.85;;;3.00;;
37973;SDS011;23796;51.458;7.000;2023-06-19T01:37:15;5.00;;;2.88;;
37973;SDS011;23796;51.458;7.000;2023-06-19T01:39:41;4.18;;;2.75;;
37973;SDS011;23796;51.458;7.000;2023-06-19T01:42:10;3.72;;;3.08;;
37973;SDS011;23796;51.458;7.000;2023-06-19T01:44:36;3.95;;;2.95;;
37973;SDS011;23796;51.458;7.000;2023-06-19T01:47:11;3.90;;;3.03;;
37973;SDS011;23796;51.458;7.000;2023-06-19T01:49:37;4.00;;;3.22;;
37973;SDS011;23796;51.458;7.000;2023-06-19T01:52:03;3.92;;;2.92;;
37973;SDS011;23796;51.458;7.000;2023-06-19T01:54:29;3.80;;;2.83;;
37973;SDS011;23796;51.458;7.000;2023-06-19T01:56:55;4.78;;;3.15;;
37973;SDS011;23796;51.458;7.000;2023-06-19T01:59:22;3.78;;;2.92;;
37973;SDS011;23796;51.458;7.000;2023-06-19T02:01:50;4.47;;;3.28;;
37973;SDS011;23796;51.458;7.000;2023-06-19T02:04:15;4.38;;;3.40;;
37973;SDS011;23796;51.458;7.000;2023-06-19T02:06:41;4.25;;;3.17;;
37973;SDS011;23796;51.458;7.000;2023-06-19T02:09:07;3.70;;;2.95;;
37973;SDS011;23796;51.458;7.000;2023-06-19T02:11:35;4.80;;;3.63;;
37973;SDS011;23796;51.458;7.000;2023-06-19T02:14:03;3.97;;;3.10;;
37973;SDS011;23796;51.458;7.000;2023-06-19T02:16:31;4.47;;;3.20;;
37973;SDS011;23796;51.458;7.000;2023-06-19T02:18:57;4.47;;;3.28;;
37973;SDS011;23796;51.458;7.000;2023-06-19T02:21:22;4.40;;;3.58;;
37973;SDS011;23796;51.458;7.000;2023-06-19T02:23:48;4.07;;;3.13;;
37973;SDS011;23796;51.458;7.000;2023-06-19T02:26:15;5.22;;;3.90;;
37973;SDS011;23796;51.458;7.000;2023-06-19T02:28:43;5.38;;;3.33;;
37973;SDS011;23796;51.458;7.000;2023-06-19T02:31:08;5.03;;;3.08;;
37973;SDS011;23796;51.458;7.000;2023-06-19T02:33:34;5.72;;;3.50;;
37973;SDS011;23796;51.458;7.000;2023-06-19T02:36:02;3.97;;;3.13;;
37973;SDS011;23796;51.458;7.000;2023-06-19T02:38:29;4.20;;;2.95;;
37973;SDS011;23796;51.458;7.000;2023-06-19T02:40:57;4.50;;;3.38;;
37973;SDS011;23796;51.458;7.000;2023-06-19T02:43:22;4.38;;;3.20;;
37973;SDS011;23796;51.458;7.000;2023-06-19T02:45:53;4.75;;;3.20;;
37973;SDS011;23796;51.458;7.000;2023-06-19T02:48:21;4.22;;;3.22;;
37973;SDS011;23796;51.458;7.000;2023-06-19T02:50:49;5.78;;;3.13;;
37973;SDS011;23796;51.458;7.000;2023-06-19T02:53:17;5.07;;;3.13;;
37973;SDS011;23796;51.458;7.000;2023-06-19T02:55:45;3.97;;;3.13;;
37973;SDS011;23796;51.458;7.000;2023-06-19T02:58:13;6.57;;;4.30;;
37973;SDS011;23796;51.458;7.000;2023-06-19T03:00:41;4.53;;;3.38;;
37973;SDS011;23796;51.458;7.000;2023-06-19T03:03:07;4.97;;;3.65;;
37973;SDS011;23796;51.458;7.000;2023-06-19T03:05:32;4.63;;;3.50;;
37973;SDS011;23796;51.458;7.000;2023-06-19T03:07:58;4.32;;;3.30;;
37973;SDS011;23796;51.458;7.000;2023-06-19T03:10:23;6.45;;;3.53;;
37973;SDS011;23796;51.458;7.000;2023-06-19T03:12:49;4.15;;;3.10;;
37973;SDS011;23796;51.458;7.000;2023-06-19T03:15:20;4.50;;;3.33;;
37973;SDS011;23796;51.458;7.000;2023-06-19T03:17:45;5.18;;;3.60;;
37973;SDS011;23796;51.458;7.000;2023-06-19T03:20:11;5.22;;;3.33;;
37973;SDS011;23796;51.458;7.000;2023-06-19T03:22:42;8.60;;;3.33;;
37973;SDS011;23796;51.458;7.000;2023-06-19T03:25:10;5.50;;;3.00;;
37973;SDS011;23796;51.458;7.000;2023-06-19T03:27:38;5.60;;;3.00;;
37973;SDS011;23796;51.458;7.000;2023-06-19T03:30:06;4.05;;;2.90;;
37973;SDS011;23796;51.458;7.000;2023-06-19T03:32:33;3.83;;;2.97;;
37973;SDS011;23796;51.458;7.000;2023-06-19T03:35:01;4.57;;;2.88;;
37973;SDS011;23796;51.458;7.000;2023-06-19T03:37:30;3.90;;;2.80;;
37973;SDS011;23796;51.458;7.000;2023-06-19T03:39:57;4.50;;;3.38;;
37973;SDS011;23796;51.458;7.000;2023-06-19T03:42:25;4.90;;;3.20;;
37973;SDS011;23796;51.458;7.000;2023-06-19T03:44:53;4.95;;;3.20;;
37973;SDS011;23796;51.458;7.000;2023-06-19T03:47:21;4.57;;;2.97;;
37973;SDS011;23796;51.458;7.000;2023-06-19T03:49:47;4.05;;;2.83;;
37973;SDS011;23796;51.458;7.000;2023-06-19T03:52:13;3.90;;;3.00;;
37973;SDS011;23796;51.458;7.000;2023-06-19T03:54:41;3.75;;;2.95;;
37973;SDS011;23796;51.458;7.000;2023-06-19T03:57:07;10.75;;;2.92;;
37973;SDS011;23796;51.458;7.000;2023-06-19T03:59:35;6.22;;;2.88;;
37973;SDS011;23796;51.458;7.000;2023-06-19T04:02:05;5.53;;;2.70;;
37973;SDS011;23796;51.458;7.000;2023-06-19T04:04:30;4.03;;;2.70;;
37973;SDS011;23796;51.458;7.000;2023-06-19T04:06:59;4.28;;;2.88;;
37973;SDS011;23796;51.458;7.000;2023-06-19T04:09:24;6.18;;;2.90;;
37973;SDS011;23796;51.458;7.000;2023-06-19T04:11:53;3.80;;;2.40;;
37973;SDS011;23796;51.458;7.000;2023-06-19T04:14:18;3.40;;;2.15;;
37973;SDS011;23796;51.458;7.000;2023-06-19T04:16:44;5.18;;;2.50;;
37973;SDS011;23796;51.458;7.000;2023-06-19T04:19:12;3.95;;;2.05;;
37973;SDS011;23796;51.458;7.000;2023-06-19T04:21:37;3.83;;;1.90;;
37973;SDS011;23796;51.458;7.000;2023-06-19T04:24:03;3.63;;;2.17;;
37973;SDS011;23796;51.458;7.000;2023-06-19T04:26:29;3.38;;;2.35;;
37973;SDS011;23796;51.458;7.000;2023-06-19T04:28:55;3.30;;;2.22;;
37973;SDS011;23796;51.458;7.000;2023-06-19T04:31:21;4.97;;;2.00;;
37973;SDS011;23796;51.458;7.000;2023-06-19T04:33:51;3.53;;;2.20;;
37973;SDS011;23796;51.458;7.000;2023-06-19T04:36:17;3.55;;;2.22;;
37973;SDS011;23796;51.458;7.000;2023-06-19T04:38:45;3.80;;;2.33;;
37973;SDS011;23796;51.458;7.000;2023-06-19T04:41:13;3.90;;;2.30;;
37973;SDS011;23796;51.458;7.000;2023-06-19T04:43:39;3.97;;;2.38;;
37973;SDS011;23796;51.458;7.000;2023-06-19T04:46:08;7.18;;;2.55;;
37973;SDS011;23796;51.458;7.000;2023-06-19T04:48:33;5.45;;;2.15;;
37973;SDS011;23796;51.458;7.000;2023-06-19T04:51:01;6.00;;;2.15;;
37973;SDS011;23796;51.458;7.000;2023-06-19T04:53:27;6.90;;;2.80;;
37973;SDS011;23796;51.458;7.000;2023-06-19T04:55:53;5.82;;;2.58;;
37973;SDS011;23796;51.458;7.000;2023-06-19T04:58:21;5.35;;;2.70;;
37973;SDS011;23796;51.458;7.000;2023-06-19T05:00:54;7.47;;;2.40;;
37973;SDS011;23796;51.458;7.000;2023-06-19T05:03:20;4.80;;;2.38;;
37973;SDS011;23796;51.458;7.000;2023-06-19T05:05:46;3.80;;;2.38;;
37973;SDS011;23796;51.458;7.000;2023-06-19T05:08:12;4.60;;;2.47;;
37973;SDS011;23796;51.458;7.000;2023-06-19T05:10:40;6.30;;;2.40;;
37973;SDS011;23796;51.458;7.000;2023-06-19T05:13:06;3.70;;;2.50;;
37973;SDS011;23796;51.458;7.000;2023-06-19T05:15:32;5.93;;;2.67;;
37973;SDS011;23796;51.458;7.000;2023-06-19T05:17:59;3.15;;;1.83;;
37973;SDS011;23796;51.458;7.000;2023-06-19T05:20:30;5.60;;;2.47;;
37973;SDS011;23796;51.458;7.000;2023-06-19T05:22:58;4.32;;;2.50;;
37973;SDS011;23796;51.458;7.000;2023-06-19T05:25:24;4.90;;;2.50;;
37973;SDS011;23796;51.458;7.000;2023-06-19T05:27:52;4.90;;;2.20;;
37973;SDS011;23796;51.458;7.000;2023-06-19T05:30:19;3.63;;;2.35;;
37973;SDS011;23796;51.458;7.000;2023-06-19T05:32:45;5.47;;;2.17;;
37973;SDS011;23796;51.458;7.000;2023-06-19T05:35:13;4.85;;;2.25;;
37973;SDS011;23796;51.458;7.000;2023-06-19T05:37:38;4.47;;;2.00;;
37973;SDS011;23796;51.458;7.000;2023-06-19T05:40:08;5.22;;;2.33;;
37973;SDS011;23796;51.458;7.000;2023-06-19T05:42:37;6.88;;;2.28;;
37973;SDS011;23796;51.458;7.000;2023-06-19T05:45:03;4.32;;;2.47;;
37973;SDS011;23796;51.458;7.000;2023-06-19T05:47:29;3.55;;;2.10;;
37973;SDS011;23796;51.458;7.000;2023-06-19T05:49:56;3.53;;;2.25;;
37973;SDS011;23796;51.458;7.000;2023-06-19T05:52:24;4.38;;;2.10;;
37973;SDS011;23796;51.458;7.000;2023-06-19T05:54:54;5.88;;;2.28;;
37973;SDS011;23796;51.458;7.000;2023-06-19T05:57:23;12.38;;;2.90;;
37973;SDS011;23796;51.458;7.000;2023-06-19T05:59:49;4.53;;;1.98;;
37973;SDS011;23796;51.458;7.000;2023-06-19T06:02:15;3.47;;;2.30;;
37973;SDS011;23796;51.458;7.000;2023-06-19T06:04:47;3.22;;;2.05;;
37973;SDS011;23796;51.458;7.000;2023-06-19T06:07:12;5.38;;;2.38;;
37973;SDS011;23796;51.458;7.000;2023-06-19T06:09:38;8.98;;;2.55;;
37973;SDS011;23796;51.458;7.000;2023-06-19T06:12:06;5.38;;;1.85;;
37973;SDS011;23796;51.458;7.000;2023-06-19T06:14:32;4.38;;;2.00;;
37973;SDS011;23796;51.458;7.000;2023-06-19T06:17:00;4.70;;;1.83;;
37973;SDS011;23796;51.458;7.000;2023-06-19T06:19:28;4.28;;;1.85;;
37973;SDS011;23796;51.458;7.000;2023-06-19T06:21:56;6.03;;;2.00;;
37973;SDS011;23796;51.458;7.000;2023-06-19T06:24:21;6.75;;;1.73;;
37973;SDS011;23796;51.458;7.000;2023-06-19T06:26:49;3.60;;;1.60;;
37973;SDS011;23796;51.458;7.000;2023-06-19T06:29:15;3.22;;;1.55;;
37973;SDS011;23796;51.458;7.000;2023-06-19T06:31:40;2.60;;;1.45;;
37973;SDS011;23796;51.458;7.000;2023-06-19T06:34:06;2.75;;;1.60;;
37973;SDS011;23796;51.458;7.000;2023-06-19T06:36:32;2.97;;;1.42;;
37973;SDS011;23796;51.458;7.000;2023-06-19T06:38:58;3.10;;;1.73;;
37973;SDS011;23796;51.458;7.000;2023-06-19T06:41:26;3.78;;;1.80;;
37973;SDS011;23796;51.458;7.000;2023-06-19T06:43:52;3.97;;;1.65;;
37973;SDS011;23796;51.458;7.000;2023-06-19T06:46:18;4.50;;;1.67;;
37973;SDS011;23796;51.458;7.000;2023-06-19T06:48:46;4.07;;;1.83;;
37973;SDS011;23796;51.458;7.000;2023-06-19T06:51:12;5.13;;;1.90;;
37973;SDS011;23796;51.458;7.000;2023-06-19T06:53:37;3.80;;;1.80;;
37973;SDS011;23796;51.458;7.000;2023-06-19T06:56:08;3.28;;;1.58;;
37973;SDS011;23796;51.458;7.000;2023-06-19T06:58:36;4.88;;;1.60;;
37973;SDS011;23796;51.458;7.000;2023-06-19T07:01:01;4.25;;;1.95;;
37973;SDS011;23796;51.458;7.000;2023-06-19T07:03:27;3.17;;;1.35;;
37973;SDS011;23796;51.458;7.000;2023-06-19T07:05:55;5.13;;;2.00;;
37973;SDS011;23796;51.458;7.000;2023-06-19T07:08:20;5.68;;;1.60;;
37973;SDS011;23796;51.458;7.000;2023-06-19T07:10:48;3.75;;;1.75;;
37973;SDS011;23796;51.458;7.000;2023-06-19T07:13:14;4.20;;;1.77;;
37973;SDS011;23796;51.458;7.000;2023-06-19T07:15:39;5.10;;;2.20;;
37973;SDS011;23796;51.458;7.000;2023-06-19T07:18:05;5.88;;;2.05;;
37973;SDS011;23796;51.458;7.000;2023-06-19T07:20:31;4.53;;;1.70;;
37973;SDS011;23796;51.458;7.000;2023-06-19T07:22:56;4.88;;;2.03;;
37973;SDS011;23796;51.458;7.000;2023-06-19T07:25:22;3.97;;;1.63;;
37973;SDS011;23796;51.458;7.000;2023-06-19T07:27:50;3.97;;;1.90;;
37973;SDS011;23796;51.458;7.000;2023-06-19T07:30:18;4.13;;;2.92;;
37973;SDS011;23796;51.458;7.000;2023-06-19T07:32:43;5.93;;;2.20;;
37973;SDS011;23796;51.458;7.000;2023-06-19T07:35:09;5.30;;;2.22;;
37973;SDS011;23796;51.458;7.000;2023-06-19T07:37:36;6.00;;;2.20;;
37973;SDS011;23796;51.458;7.000;2023-06-19T07:40:02;6.30;;;4.78;;
37973;SDS011;23796;51.458;7.000;2023-06-19T07:42:28;3.88;;;2.10;;
37973;SDS011;23796;51.458;7.000;2023-06-19T07:44:56;4.43;;;2.30;;
37973;SDS011;23796;51.458;7.000;2023-06-19T07:47:26;6.40;;;2.30;;
37973;SDS011;23796;51.458;7.000;2023-06-19T07:49:52;4.20;;;2.13;;
37973;SDS011;23796;51.458;7.000;2023-06-19T07:52:17;4.70;;;1.80;;
37973;SDS011;23796;51.458;7.000;2023-06-19T07:54:55;5.13;;;1.92;;
37973;SDS011;23796;51.458;7.000;2023-06-19T07:57:24;6.32;;;2.70;;
37973;SDS011;23796;51.458;7.000;2023-06-19T07:59:53;4.22;;;1.60;;
37973;SDS011;23796;51.458;7.000;2023-06-19T08:02:19;4.97;;;1.88;;
37973;SDS011;23796;51.458;7.000;2023-06-19T08:04:49;3.75;;;1.90;;
37973;SDS011;23796;51.458;7.000;2023-06-19T08:07:15;6.50;;;1.70;;
37973;SDS011;23796;51.458;7.000;2023-06-19T08:09:41;3.75;;;1.42;;
37973;SDS011;23796;51.458;7.000;2023-06-19T08:12:09;2.90;;;1.50;;
37973;SDS011;23796;51.458;7.000;2023-06-19T08:14:37;6.30;;;1.83;;
37973;SDS011;23796;51.458;7.000;2023-06-19T08:17:03;7.22;;;1.50;;
37973;SDS011;23796;51.458;7.000;2023-06-19T08:19:29;5.50;;;1.67;;
37973;SDS011;23796;51.458;7.000;2023-06-19T08:21:55;4.35;;;1.85;;
37973;SDS011;23796;51.458;7.000;2023-06-19T08:24:23;15.93;;;3.08;;
37973;SDS011;23796;51.458;7.000;2023-06-19T08:26:49;5.40;;;1.70;;
37973;SDS011;23796;51.458;7.000;2023-06-19T08:29:16;6.28;;;1.80;;
37973;SDS011;23796;51.458;7.000;2023-06-19T08:31:43;6.18;;;1.77;;
37973;SDS011;23796;51.458;7.000;2023-06-19T08:34:08;5.07;;;2.40;;
37973;SDS011;23796;51.458;7.000;2023-06-19T08:36:35;7.50;;;1.70;;
37973;SDS011;23796;51.458;7.000;2023-06-19T08:39:03;4.75;;;1.70;;
37973;SDS011;23796;51.458;7.000;2023-06-19T08:41:34;3.55;;;1.75;;
37973;SDS011;23796;51.458;7.000;2023-06-19T08:44:06;4.07;;;1.45;;
37973;SDS011;23796;51.458;7.000;2023-06-19T08:46:32;10.32;;;1.90;;
37973;SDS011;23796;51.458;7.000;2023-06-19T08:49:01;4.30;;;1.80;;
37973;SDS011;23796;51.458;7.000;2023-06-19T08:51:27;4.05;;;1.65;;
37973;SDS011;23796;51.458;7.000;2023-06-19T08:53:59;7.03;;;1.70;;
37973;SDS011;23796;51.458;7.000;2023-06-19T08:56:32;4.20;;;1.80;;
37973;SDS011;23796;51.458;7.000;2023-06-19T08:59:12;7.55;;;2.10;;
37973;SDS011;23796;51.458;7.000;2023-06-19T09:01:45;5.30;;;2.22;;
37973;SDS011;23796;51.458;7.000;2023-06-19T09:04:17;4.55;;;1.80;;
37973;SDS011;23796;51.458;7.000;2023-06-19T09:06:51;3.60;;;1.85;;
37973;SDS011;23796;51.458;7.000;2023-06-19T09:09:18;5.32;;;1.92;;
37973;SDS011;23796;51.458;7.000;2023-06-19T09:11:57;4.85;;;1.85;;
37973;SDS011;23796;51.458;7.000;2023-06-19T09:14:46;7.05;;;2.03;;
37973;SDS011;23796;51.458;7.000;2023-06-19T09:17:17;4.43;;;1.52;;
37973;SDS011;23796;51.458;7.000;2023-06-19T09:19:47;5.82;;;2.25;;
37973;SDS011;23796;51.458;7.000;2023-06-19T09:22:16;6.75;;;2.55;;
37973;SDS011;23796;51.458;7.000;2023-06-19T09:24:48;4.72;;;2.10;;
37973;SDS011;23796;51.458;7.000;2023-06-19T09:27:15;4.32;;;2.30;;
37973;SDS011;23796;51.458;7.000;2023-06-19T09:29:47;2.88;;;1.67;;
37973;SDS011;23796;51.458;7.000;2023-06-19T09:34:46;5.43;;;1.98;;
37973;SDS011;23796;51.458;7.000;2023-06-19T09:37:13;4.25;;;2.42;;
37973;SDS011;23796;51.458;7.000;2023-06-19T09:39:39;5.90;;;2.00;;
37973;SDS011;23796;51.458;7.000;2023-06-19T09:42:09;6.75;;;2.17;;
37973;SDS011;23796;51.458;7.000;2023-06-19T09:44:42;4.93;;;2.30;;
37973;SDS011;23796;51.458;7.000;2023-06-19T09:47:17;9.85;;;2.78;;
37973;SDS011;23796;51.458;7.000;2023-06-19T09:49:53;9.88;;;2.50;;
37973;SDS011;23796;51.458;7.000;2023-06-19T09:52:20;5.00;;;2.15;;
37973;SDS011;23796;51.458;7.000;2023-06-19T09:54:49;7.60;;;2.17;;
37973;SDS011;23796;51.458;7.000;2023-06-19T09:57:16;3.42;;;1.90;;
37973;SDS011;23796;51.458;7.000;2023-06-19T09:59:43;4.88;;;2.05;;
37973;SDS011;23796;51.458;7.000;2023-06-19T10:02:14;4.80;;;2.42;;
37973;SDS011;23796;51.458;7.000;2023-06-19T10:04:42;12.57;;;3.03;;
37973;SDS011;23796;51.458;7.000;2023-06-19T10:09:56;6.40;;;2.30;;
37973;SDS011;23796;51.458;7.000;2023-06-19T10:12:33;6.65;;;3.10;;
37973;SDS011;23796;51.458;7.000;2023-06-19T10:15:21;4.75;;;2.50;;
37973;SDS011;23796;51.458;7.000;2023-06-19T10:18:00;4.22;;;2.40;;
37973;SDS011;23796;51.458;7.000;2023-06-19T10:20:37;5.32;;;2.53;;
37973;SDS011;23796;51.458;7.000;2023-06-19T10:25:40;9.38;;;2.78;;
37973;SDS011;23796;51.458;7.000;2023-06-19T10:30:57;5.32;;;2.45;;
37973;SDS011;23796;51.458;7.000;2023-06-19T10:33:38;6.95;;;2.83;;
37973;SDS011;23796;51.458;7.000;2023-06-19T10:36:15;8.35;;;3.10;;
37973;SDS011;23796;51.458;7.000;2023-06-19T10:38:46;5.18;;;2.90;;
37973;SDS011;23796;51.458;7.000;2023-06-19T10:41:24;11.18;;;3.08;;
37973;SDS011;23796;51.458;7.000;2023-06-19T10:43:56;12.27;;;3.45;;
37973;SDS011;23796;51.458;7.000;2023-06-19T10:46:22;11.25;;;3.20;;
37973;SDS011;23796;51.458;7.000;2023-06-19T10:48:48;11.02;;;3.22;;
37973;SDS011;23796;51.458;7.000;2023-06-19T10:51:18;6.03;;;2.55;;
37973;SDS011;23796;51.458;7.000;2023-06-19T10:53:44;6.22;;;2.55;;
37973;SDS011;23796;51.458;7.000;2023-06-19T10:56:09;13.98;;;4.00;;
37973;SDS011;23796;51.458;7.000;2023-06-19T10:58:35;8.75;;;3.22;;
37973;SDS011;23796;51.458;7.000;2023-06-19T11:01:01;17.63;;;4.50;;
37973;SDS011;23796;51.458;7.000;2023-06-19T11:03:26;7.38;;;3.30;;
37973;SDS011;23796;51.458;7.000;2023-06-19T11:05:54;8.05;;;3.38;;
37973;SDS011;23796;51.458;7.000;2023-06-19T11:08:22;4.93;;;2.90;;
37973;SDS011;23796;51.458;7.000;2023-06-19T11:10:51;7.05;;;3.05;;
37973;SDS011;23796;51.458;7.000;2023-06-19T11:13:19;6.78;;;3.20;;
37973;SDS011;23796;51.458;7.000;2023-06-19T11:15:45;4.63;;;2.80;;
37973;SDS011;23796;51.458;7.000;2023-06-19T11:18:19;4.90;;;2.83;;
37973;SDS011;23796;51.458;7.000;2023-06-19T11:20:45;5.13;;;3.08;;
37973;SDS011;23796;51.458;7.000;2023-06-19T11:23:15;4.95;;;3.40;;
37973;SDS011;23796;51.458;7.000;2023-06-19T11:26:03;4.53;;;3.00;;
37973;SDS011;23796;51.458;7.000;2023-06-19T11:28:32;5.32;;;2.60;;
37973;SDS011;23796;51.458;7.000;2023-06-19T11:30:58;6.07;;;3.20;;
37973;SDS011;23796;51.458;7.000;2023-06-19T11:33:29;4.97;;;3.00;;
37973;SDS011;23796;51.458;7.000;2023-06-19T11:35:58;7.20;;;3.33;;
37973;SDS011;23796;51.458;7.000;2023-06-19T11:38:26;6.40;;;3.47;;
37973;SDS011;23796;51.458;7.000;2023-06-19T11:40:53;5.70;;;3.40;;
37973;SDS011;23796;51.458;7.000;2023-06-19T11:43:24;5.90;;;2.97;;
37973;SDS011;23796;51.458;7.000;2023-06-19T11:45:50;5.80;;;3.20;;
37973;SDS011;23796;51.458;7.000;2023-06-19T11:48:26;5.47;;;3.30;;
37973;SDS011;23796;51.458;7.000;2023-06-19T11:50:52;6.10;;;3.33;;
37973;SDS011;23796;51.458;7.000;2023-06-19T11:53:19;5.97;;;3.20;;
37973;SDS011;23796;51.458;7.000;2023-06-19T11:55:48;6.38;;;3.38;;
37973;SDS011;23796;51.458;7.000;2023-06-19T11:58:16;8.30;;;3.80;;
37973;SDS011;23796;51.458;7.000;2023-06-19T12:00:44;4.15;;;3.00;;
37973;SDS011;23796;51.458;7.000;2023-06-19T12:03:12;5.68;;;3.00;;
37973;SDS011;23796;51.458;7.000;2023-06-19T12:05:38;6.78;;;4.00;;
37973;SDS011;23796;51.458;7.000;2023-06-19T12:08:04;9.23;;;3.78;;
37973;SDS011;23796;51.458;7.000;2023-06-19T12:10:33;8.82;;;3.42;;
37973;SDS011;23796;51.458;7.000;2023-06-19T12:12:59;5.30;;;3.15;;
37973;SDS011;23796;51.458;7.000;2023-06-19T12:15:25;8.77;;;3.75;;
37973;SDS011;23796;51.458;7.000;2023-06-19T12:17:51;7.32;;;3.67;;
37973;SDS011;23796;51.458;7.000;2023-06-19T12:20:19;7.55;;;3.25;;
37973;SDS011;23796;51.458;7.000;2023-06-19T12:22:45;5.30;;;3.53;;
37973;SDS011;23796;51.458;7.000;2023-06-19T12:25:10;5.97;;;3.72;;
37973;SDS011;23796;51.458;7.000;2023-06-19T12:27:39;4.85;;;3.70;;
37973;SDS011;23796;51.458;7.000;2023-06-19T12:30:05;4.38;;;3.25;;
37973;SDS011;23796;51.458;7.000;2023-06-19T12:32:36;5.75;;;3.47;;
37973;SDS011;23796;51.458;7.000;2023-06-19T12:35:02;10.00;;;3.80;;
37973;SDS011;23796;51.458;7.000;2023-06-19T12:37:28;6.53;;;3.42;;
37973;SDS011;23796;51.458;7.000;2023-06-19T12:39:54;5.15;;;3.28;;
37973;SDS011;23796;51.458;7.000;2023-06-19T12:42:20;4.15;;;2.95;;
37973;SDS011;23796;51.458;7.000;2023-06-19T12:44:48;4.40;;;3.28;;
37973;SDS011;23796;51.458;7.000;2023-06-19T12:47:15;4.60;;;3.22;;
37973;SDS011;23796;51.458;7.000;2023-06-19T12:49:43;6.75;;;3.72;;
37973;SDS011;23796;51.458;7.000;2023-06-19T12:52:11;5.35;;;3.40;;
37973;SDS011;23796;51.458;7.000;2023-06-19T12:54:36;7.47;;;3.67;;
37973;SDS011;23796;51.458;7.000;2023-06-19T12:57:07;6.35;;;3.78;;
37973;SDS011;23796;51.458;7.000;2023-06-19T12:59:35;5.20;;;3.83;;
37973;SDS011;23796;51.458;7.000;2023-06-19T13:02:03;5.30;;;3.45;;
37973;SDS011;23796;51.458;7.000;2023-06-19T13:04:29;6.03;;;3.47;;
37973;SDS011;23796;51.458;7.000;2023-06-19T13:06:54;4.70;;;3.50;;
37973;SDS011;23796;51.458;7.000;2023-06-19T13:09:20;5.65;;;3.85;;
37973;SDS011;23796;51.458;7.000;2023-06-19T13:11:48;6.50;;;4.13;;
37973;SDS011;23796;51.458;7.000;2023-06-19T13:14:15;4.95;;;3.65;;
37973;SDS011;23796;51.458;7.000;2023-06-19T13:16:41;7.30;;;3.50;;
37973;SDS011;23796;51.458;7.000;2023-06-19T13:19:09;5.10;;;3.33;;
37973;SDS011;23796;51.458;7.000;2023-06-19T13:21:35;8.30;;;3.80;;
37973;SDS011;23796;51.458;7.000;2023-06-19T13:24:01;6.28;;;3.70;;
37973;SDS011;23796;51.458;7.000;2023-06-19T13:26:28;4.55;;;3.60;;
37973;SDS011;23796;51.458;7.000;2023-06-19T13:28:54;5.25;;;3.85;;
37973;SDS011;23796;51.458;7.000;2023-06-19T13:31:23;4.78;;;3.85;;
37973;SDS011;23796;51.458;7.000;2023-06-19T13:33:50;6.30;;;3.80;;
37973;SDS011;23796;51.458;7.000;2023-06-19T13:36:15;7.43;;;3.78;;
37973;SDS011;23796;51.458;7.000;2023-06-19T13:38:43;5.18;;;3.80;;
37973;SDS011;23796;51.458;7.000;2023-06-19T13:41:09;7.40;;;4.25;;
37973;SDS011;23796;51.458;7.000;2023-06-19T13:43:35;5.10;;;3.38;;
37973;SDS011;23796;51.458;7.000;2023-06-19T13:46:01;4.65;;;2.90;;
37973;SDS011;23796;51.458;7.000;2023-06-19T13:48:28;5.75;;;2.90;;
37973;SDS011;23796;51.458;7.000;2023-06-19T13:50:54;4.97;;;2.90;;
37973;SDS011;23796;51.458;7.000;2023-06-19T13:53:19;4.75;;;2.88;;
37973;SDS011;23796;51.458;7.000;2023-06-19T13:55:46;5.22;;;3.17;;
37973;SDS011;23796;51.458;7.000;2023-06-19T13:58:12;5.72;;;3.42;;
37973;SDS011;23796;51.458;7.000;2023-06-19T14:00:38;4.72;;;3.42;;
37973;SDS011;23796;51.458;7.000;2023-06-19T14:03:08;8.45;;;3.40;;
37973;SDS011;23796;51.458;7.000;2023-06-19T14:05:38;6.25;;;3.22;;
37973;SDS011;23796;51.458;7.000;2023-06-19T14:08:06;4.68;;;3.08;;
37973;SDS011;23796;51.458;7.000;2023-06-19T14:10:33;6.57;;;3.72;;
37973;SDS011;23796;51.458;7.000;2023-06-19T14:12:59;4.18;;;3.22;;
37973;SDS011;23796;51.458;7.000;2023-06-19T14:15:24;6.07;;;3.00;;
37973;SDS011;23796;51.458;7.000;2023-06-19T14:17:52;5.13;;;2.88;;
37973;SDS011;23796;51.458;7.000;2023-06-19T14:20:18;3.90;;;2.70;;
37973;SDS011;23796;51.458;7.000;2023-06-19T14:22:43;5.90;;;3.40;;
37973;SDS011;23796;51.458;7.000;2023-06-19T14:25:14;5.43;;;3.50;;
37973;SDS011;23796;51.458;7.000;2023-06-19T14:27:39;5.60;;;3.05;;
37973;SDS011;23796;51.458;7.000;2023-06-19T14:30:05;4.05;;;2.75;;
37973;SDS011;23796;51.458;7.000;2023-06-19T14:32:35;5.13;;;2.90;;
37973;SDS011;23796;51.458;7.000;2023-06-19T14:35:04;6.03;;;3.08;;
37973;SDS011;23796;51.458;7.000;2023-06-19T14:37:30;6.07;;;3.05;;
37973;SDS011;23796;51.458;7.000;2023-06-19T14:39:58;4.05;;;2.70;;
37973;SDS011;23796;51.458;7.000;2023-06-19T14:42:24;4.50;;;2.65;;
37973;SDS011;23796;51.458;7.000;2023-06-19T14:44:50;4.63;;;2.88;;
37973;SDS011;23796;51.458;7.000;2023-06-19T14:47:15;6.00;;;2.83;;
37973;SDS011;23796;51.458;7.000;2023-06-19T14:49:41;5.80;;;3.50;;
37973;SDS011;23796;51.458;7.000;2023-06-19T14:52:09;4.80;;;3.63;;
37973;SDS011;23796;51.458;7.000;2023-06-19T14:54:37;6.05;;;3.38;;
37973;SDS011;23796;51.458;7.000;2023-06-19T14:57:03;5.13;;;3.38;;
37973;SDS011;23796;51.458;7.000;2023-06-19T14:59:33;5.78;;;3.60;;
37973;SDS011;23796;51.458;7.000;2023-06-19T15:02:01;4.85;;;3.20;;
37973;SDS011;23796;51.458;7.000;2023-06-19T15:04:31;5.15;;;3.00;;